Time;durP1;ratioP1;P1;durP2;ratioP2;P2;SDS_P1;SDS_P2;PMS_P1;PMS_P2;Temp;Humidity;BMP_temperature;BMP_pressure;BME280_temperature;BME280_humidity;BME280_pressure;Samples;Min_cycle;Max_cycle;Signal;HPM_P1;HPM_P2
2021/06/29 00:00:26;;;;;;;1.33;0.82;;;24.20;46.70;;;;;;5125443;28;20033;-36
2021/06/29 00:03:05;;;;;;;0.97;0.87;;;24.10;46.70;;;;;;5125276;27;20031;-35
2021/06/29 00:05:32;;;;;;;1.45;0.95;;;24.10;46.90;;;;;;5125198;28;20035;-36
2021/06/29 00:07:58;;;;;;;1.92;1.27;;;24.10;47.00;;;;;;5108945;28;20062;-35
2021/06/29 00:10:28;;;;;;;0.88;0.88;;;24.10;46.90;;;;;;5108305;28;20457;-36
2021/06/29 00:12:55;;;;;;;1.20;1.10;;;24.10;46.60;;;;;;5124922;28;20039;-36
2021/06/29 00:15:22;;;;;;;1.17;0.90;;;24.00;47.00;;;;;;5125026;28;20130;-35
2021/06/29 00:17:48;;;;;;;1.55;1.45;;;24.00;47.10;;;;;;5125031;28;20032;-36
2021/06/29 00:20:14;;;;;;;1.20;1.10;;;24.00;46.90;;;;;;5125250;28;20073;-36
2021/06/29 00:22:41;;;;;;;0.90;0.90;;;24.00;48.00;;;;;;5123875;28;20354;-36
2021/06/29 00:25:08;;;;;;;1.53;0.97;;;24.00;48.00;;;;;;5123856;28;20081;-36
2021/06/29 00:27:34;;;;;;;0.77;0.77;;;24.00;48.10;;;;;;5124638;28;20063;-36
2021/06/29 00:30:00;;;;;;;1.13;0.90;;;24.00;48.60;;;;;;5124822;28;20027;-35
2021/06/29 00:32:26;;;;;;;1.10;1.00;;;23.90;48.50;;;;;;5124842;28;20023;-35
2021/06/29 00:34:52;;;;;;;1.00;0.90;;;23.90;48.60;;;;;;5124879;28;20048;-36
2021/06/29 00:37:19;;;;;;;0.88;0.85;;;23.90;48.30;;;;;;5124277;28;20024;-35
2021/06/29 00:39:45;;;;;;;1.10;1.00;;;23.90;48.30;;;;;;5124778;28;20031;-35
2021/06/29 00:42:11;;;;;;;1.35;1.00;;;23.90;48.20;;;;;;5109017;28;20028;-36
2021/06/29 00:44:37;;;;;;;1.25;1.10;;;23.80;47.20;;;;;;5103991;28;20052;-36
2021/06/29 00:47:08;;;;;;;1.77;1.02;;;23.80;47.70;;;;;;5104118;28;20047;-36
2021/06/29 00:49:34;;;;;;;1.67;1.15;;;23.80;47.40;;;;;;5104274;28;20024;-35
2021/06/29 00:52:00;;;;;;;1.02;0.93;;;23.70;47.20;;;;;;5102889;28;20028;-35
2021/06/29 00:54:26;;;;;;;0.98;0.90;;;23.70;47.40;;;;;;5104176;28;20445;-35
2021/06/29 00:56:52;;;;;;;1.10;1.00;;;23.70;47.30;;;;;;5102690;28;20047;-37
2021/06/29 00:59:19;;;;;;;1.05;0.95;;;23.70;46.80;;;;;;5103729;28;20055;-35
2021/06/29 01:01:45;;;;;;;0.90;0.90;;;23.60;48.10;;;;;;5104021;28;20028;-36
2021/06/29 01:04:11;;;;;;;3.33;0.98;;;23.60;47.10;;;;;;5105523;28;20035;-36
2021/06/29 01:06:38;;;;;;;1.00;0.90;;;23.60;47.60;;;;;;5123955;28;20039;-35
2021/06/29 01:09:04;;;;;;;0.82;0.82;;;23.60;47.10;;;;;;5124127;28;20033;-36
2021/06/29 01:11:30;;;;;;;1.63;1.00;;;23.60;48.60;;;;;;5123983;28;20043;-36
2021/06/29 01:13:56;;;;;;;0.90;0.90;;;23.60;48.40;;;;;;5124178;28;20051;-36
2021/06/29 01:16:23;;;;;;;0.88;0.80;;;23.50;47.60;;;;;;5122277;28;20062;-36
2021/06/29 01:18:49;;;;;;;0.63;0.63;;;23.50;48.50;;;;;;5123712;28;20059;-36
2021/06/29 01:21:17;;;;;;;1.30;1.10;;;23.50;48.40;;;;;;5124201;28;20255;-35
2021/06/29 01:23:49;;;;;;;1.48;0.88;;;23.50;49.30;;;;;;5124039;28;20028;-36
2021/06/29 01:31:27;;;;;;;0.90;0.88;;;23.40;47.30;;;;;;5123861;28;20034;-35
2021/06/29 01:33:54;;;;;;;0.85;0.85;;;23.30;47.00;;;;;;5122498;28;20028;-35
2021/06/29 01:36:21;;;;;;;1.10;1.00;;;23.30;47.30;;;;;;5122226;28;20042;-36
2021/06/29 01:38:48;;;;;;;1.00;0.90;;;23.30;46.80;;;;;;5123480;28;20035;-35
2021/06/29 01:41:15;;;;;;;1.00;0.90;;;23.30;47.20;;;;;;5115954;28;20024;-36
2021/06/29 01:43:49;;;;;;;2.22;0.90;;;23.20;46.80;;;;;;5103479;28;20045;-35
2021/06/29 01:46:16;;;;;;;1.20;1.00;;;23.20;46.90;;;;;;5103060;28;20028;-35
2021/06/29 01:48:53;;;;;;;1.00;0.90;;;23.10;46.90;;;;;;5114613;28;20087;-35
2021/06/29 01:51:19;;;;;;;1.70;0.82;;;23.10;47.00;;;;;;5123577;28;20551;-35
2021/06/29 01:53:47;;;;;;;0.90;0.90;;;23.10;47.50;;;;;;5123572;28;20095;-35
2021/06/29 01:56:17;;;;;;;1.08;0.98;;;23.10;48.10;;;;;;5123593;27;20039;-36
2021/06/29 01:58:51;;;;;;;1.30;1.00;;;23.10;48.60;;;;;;5123304;28;20039;-35
2021/06/29 02:01:17;;;;;;;1.55;1.10;;;23.10;47.90;;;;;;5123350;28;20028;-35
2021/06/29 02:03:43;;;;;;;1.38;1.00;;;23.00;49.10;;;;;;5123461;28;20028;-35
2021/06/29 02:06:10;;;;;;;0.93;0.93;;;23.00;50.70;;;;;;5122822;28;20035;-35
2021/06/29 02:08:36;;;;;;;1.00;0.90;;;23.00;51.70;;;;;;5123312;28;20043;-35
2021/06/29 02:11:02;;;;;;;2.17;1.05;;;23.00;52.60;;;;;;5123471;28;20049;-35
2021/06/29 02:13:31;;;;;;;2.42;1.08;;;23.00;53.70;;;;;;5123421;28;20032;-35
2021/06/29 02:15:59;;;;;;;0.90;0.90;;;23.00;54.60;;;;;;5123109;27;20079;-35
2021/06/29 02:18:45;;;;;;;1.08;0.98;;;23.00;55.20;;;;;;5123122;28;20046;-39
2021/06/29 02:21:12;;;;;;;1.15;0.93;;;22.90;56.30;;;;;;5123327;28;20043;-35
2021/06/29 02:23:38;;;;;;;1.08;0.98;;;22.90;56.70;;;;;;5123292;28;20047;-36
2021/06/29 02:26:05;;;;;;;0.88;0.88;;;22.90;57.10;;;;;;5123231;28;20034;-36
2021/06/29 02:28:31;;;;;;;1.00;0.90;;;23.00;57.60;;;;;;5122883;28;20069;-35
2021/06/29 02:30:57;;;;;;;1.40;1.17;;;23.00;57.80;;;;;;5123124;28;20454;-35
2021/06/29 02:33:23;;;;;;;1.23;1.08;;;23.00;58.20;;;;;;5123204;28;20027;-35
2021/06/29 02:35:49;;;;;;;1.35;1.08;;;23.00;58.30;;;;;;5122976;28;20642;-37
2021/06/29 02:38:15;;;;;;;0.90;0.90;;;23.00;58.70;;;;;;5123248;28;20031;-35
2021/06/29 02:40:42;;;;;;;0.88;0.88;;;23.00;58.50;;;;;;5119980;28;20020;-35
2021/06/29 02:43:08;;;;;;;1.08;0.98;;;23.00;58.30;;;;;;5102737;28;20684;-35
2021/06/29 02:45:34;;;;;;;1.23;0.93;;;23.00;58.50;;;;;;5102570;28;20024;-35
2021/06/29 02:48:01;;;;;;;0.90;0.90;;;23.00;58.50;;;;;;5102735;28;20028;-36
2021/06/29 02:50:27;;;;;;;1.05;0.93;;;23.00;58.70;;;;;;5102612;28;20054;-35
2021/06/29 02:52:54;;;;;;;0.80;0.80;;;23.10;58.80;;;;;;5102693;28;20039;-35
2021/06/29 02:55:20;;;;;;;1.23;0.85;;;23.10;58.70;;;;;;5102698;28;20027;-35
2021/06/29 02:57:46;;;;;;;1.20;1.10;;;23.10;58.90;;;;;;5102488;28;20036;-35
2021/06/29 03:00:15;;;;;;;1.10;1.00;;;23.10;59.00;;;;;;5105088;28;20020;-35
2021/06/29 03:02:41;;;;;;;1.00;1.00;;;23.10;59.20;;;;;;5105276;28;20083;-35
2021/06/29 03:05:08;;;;;;;0.93;0.90;;;23.10;59.30;;;;;;5113489;28;20047;-36
2021/06/29 03:07:34;;;;;;;1.10;1.00;;;23.10;59.50;;;;;;5123871;28;20047;-36
2021/06/29 03:10:01;;;;;;;1.08;0.98;;;23.10;59.80;;;;;;5126793;28;20038;-35
2021/06/29 03:12:27;;;;;;;1.13;1.03;;;23.10;59.90;;;;;;5126583;28;20130;-35
2021/06/29 03:14:56;;;;;;;1.20;1.10;;;23.10;60.00;;;;;;5126476;28;20031;-35
2021/06/29 03:17:23;;;;;;;0.90;0.90;;;23.10;60.10;;;;;;5126474;28;20031;-35
2021/06/29 03:19:50;;;;;;;1.10;0.98;;;23.10;60.10;;;;;;5126629;28;20487;-35
2021/06/29 03:22:16;;;;;;;1.23;1.07;;;23.10;60.90;;;;;;5125419;28;20024;-35
2021/06/29 03:24:42;;;;;;;0.90;0.90;;;23.10;60.40;;;;;;5126836;28;20051;-35
2021/06/29 03:27:08;;;;;;;1.30;1.20;;;23.10;60.00;;;;;;5126467;28;20035;-36
2021/06/29 03:29:36;;;;;;;1.08;1.08;;;23.10;60.10;;;;;;5125244;28;20080;-35
2021/06/29 03:32:02;;;;;;;1.15;1.05;;;23.10;60.30;;;;;;5126346;28;20492;-35
2021/06/29 03:34:28;;;;;;;1.20;1.10;;;23.20;60.30;;;;;;5126407;28;20019;-35
2021/06/29 03:36:54;;;;;;;1.17;1.05;;;23.20;60.50;;;;;;5126406;28;20031;-36
2021/06/29 03:39:21;;;;;;;1.30;1.20;;;23.20;60.60;;;;;;5126087;28;20024;-35
2021/06/29 03:41:47;;;;;;;0.90;0.90;;;23.20;60.50;;;;;;5125909;28;20032;-36
2021/06/29 03:44:13;;;;;;;1.20;1.10;;;23.20;61.20;;;;;;5126365;28;20028;-35
2021/06/29 03:46:39;;;;;;;1.05;0.95;;;23.20;61.70;;;;;;5126113;28;20865;-35
2021/06/29 03:49:08;;;;;;;1.20;1.10;;;23.20;61.30;;;;;;5126378;28;20055;-36
2021/06/29 03:51:34;;;;;;;1.50;1.00;;;23.10;61.40;;;;;;5126059;28;20028;-35
2021/06/29 03:54:01;;;;;;;1.02;0.95;;;23.20;61.60;;;;;;5126197;28;20023;-35
2021/06/29 03:56:31;;;;;;;1.05;0.95;;;23.20;61.70;;;;;;5126079;28;20121;-36
2021/06/29 03:59:01;;;;;;;1.10;1.00;;;23.20;61.90;;;;;;5125923;28;20020;-36
2021/06/29 04:01:28;;;;;;;1.10;1.00;;;23.20;62.00;;;;;;5125638;28;20028;-36
2021/06/29 04:03:55;;;;;;;1.52;0.88;;;23.20;62.10;;;;;;5125870;28;20022;-36
2021/06/29 04:06:25;;;;;;;1.10;1.00;;;23.20;62.10;;;;;;5123231;28;20047;-35
2021/06/29 04:08:55;;;;;;;1.27;1.17;;;23.20;62.00;;;;;;5105453;28;20024;-35
2021/06/29 04:11:21;;;;;;;0.70;0.70;;;23.20;61.70;;;;;;5112991;28;20373;-35
2021/06/29 04:13:47;;;;;;;0.80;0.80;;;23.20;61.80;;;;;;5125695;28;20069;-35
2021/06/29 04:16:14;;;;;;;1.10;1.00;;;23.20;61.40;;;;;;5125562;28;20036;-36
2021/06/29 04:18:40;;;;;;;1.05;0.80;;;23.20;61.20;;;;;;5125762;28;20063;-35
2021/06/29 04:21:06;;;;;;;1.02;0.95;;;23.20;61.90;;;;;;5125521;28;20024;-35
2021/06/29 04:23:32;;;;;;;1.05;1.05;;;23.20;61.80;;;;;;5125534;28;20115;-35
2021/06/29 04:25:58;;;;;;;1.20;1.10;;;23.20;61.80;;;;;;5125624;28;20031;-35
2021/06/29 04:28:25;;;;;;;2.58;1.15;;;23.20;62.20;;;;;;5125402;28;20187;-36
2021/06/29 04:30:51;;;;;;;1.10;1.00;;;23.20;62.70;;;;;;5125053;28;20051;-35
2021/06/29 04:33:17;;;;;;;1.33;1.10;;;23.20;62.70;;;;;;5124086;28;20073;-35
2021/06/29 04:35:43;;;;;;;1.45;1.10;;;23.20;62.80;;;;;;5125209;28;20118;-36
2021/06/29 04:38:10;;;;;;;0.90;0.90;;;23.20;63.10;;;;;;5125392;28;20036;-35
2021/06/29 04:40:36;;;;;;;1.50;1.10;;;23.20;62.90;;;;;;5122848;28;20026;-36
2021/06/29 04:43:02;;;;;;;1.15;1.02;;;23.20;63.10;;;;;;5104737;28;20066;-37
2021/06/29 04:45:29;;;;;;;1.20;1.02;;;23.20;63.40;;;;;;5104788;28;20035;-35
2021/06/29 04:47:56;;;;;;;1.10;0.98;;;23.20;63.40;;;;;;5104697;28;20035;-40
2021/06/29 04:50:23;;;;;;;1.38;1.27;;;23.20;63.20;;;;;;5102906;28;20056;-36
2021/06/29 04:52:49;;;;;;;1.10;1.00;;;23.20;63.40;;;;;;5104641;28;20040;-36
2021/06/29 04:55:16;;;;;;;1.58;1.20;;;23.20;63.20;;;;;;5104616;28;20025;-36
2021/06/29 04:57:42;;;;;;;1.00;1.00;;;23.20;63.10;;;;;;5104440;28;20099;-36
2021/06/29 05:00:10;;;;;;;0.90;0.90;;;23.30;62.80;;;;;;5104475;28;20095;-36
2021/06/29 05:02:36;;;;;;;1.20;1.10;;;23.20;62.60;;;;;;5102678;28;20032;-36
2021/06/29 05:05:03;;;;;;;1.20;1.10;;;23.20;62.60;;;;;;5104566;28;20111;-35
2021/06/29 05:07:29;;;;;;;;;;;23.30;62.80;;;;;;5119372;28;20035;-36
2021/06/29 05:09:55;;;;;;;1.00;0.90;;;23.30;62.90;;;;;;5124356;28;19914;-36
2021/06/29 05:12:22;;;;;;;1.20;1.10;;;23.30;63.00;;;;;;5124155;28;20059;-36
2021/06/29 05:14:48;;;;;;;1.55;1.00;;;23.30;63.70;;;;;;5124571;28;20032;-36
2021/06/29 05:17:14;;;;;;;1.20;1.10;;;23.30;64.00;;;;;;5124586;28;20092;-35
2021/06/29 05:19:40;;;;;;;1.05;0.95;;;23.30;64.00;;;;;;5124687;28;20027;-36
2021/06/29 05:22:07;;;;;;;1.30;1.20;;;23.30;64.00;;;;;;5123600;28;20028;-36
2021/06/29 05:24:33;;;;;;;0.95;0.95;;;23.20;63.90;;;;;;5122748;28;20511;-36
2021/06/29 05:26:59;;;;;;;1.00;0.90;;;23.20;64.00;;;;;;5123955;28;20065;-35
2021/06/29 05:29:25;;;;;;;1.35;1.00;;;23.20;64.20;;;;;;5124416;28;20039;-36
2021/06/29 05:31:51;;;;;;;1.10;1.00;;;23.20;64.30;;;;;;5123787;28;20047;-36
2021/06/29 05:34:18;;;;;;;1.10;1.00;;;23.20;64.30;;;;;;5123007;28;20020;-36
2021/06/29 05:36:44;;;;;;;1.25;1.15;;;23.20;64.20;;;;;;5123847;28;20019;-35
2021/06/29 05:39:15;;;;;;;0.90;0.90;;;23.20;63.80;;;;;;5124237;28;20020;-36
2021/06/29 05:41:41;;;;;;;0.90;0.90;;;23.30;63.50;;;;;;5112325;28;20543;-36
2021/06/29 05:44:07;;;;;;;1.10;1.00;;;23.20;63.60;;;;;;5103757;28;20020;-36
2021/06/29 05:46:34;;;;;;;1.25;0.90;;;23.30;63.40;;;;;;5103527;28;20409;-35
2021/06/29 05:49:02;;;;;;;1.02;0.95;;;23.30;64.30;;;;;;5103575;28;20779;-35
2021/06/29 05:51:28;;;;;;;0.98;0.90;;;23.30;63.00;;;;;;5103375;28;20036;-35
2021/06/29 05:53:54;;;;;;;1.10;0.98;;;23.30;63.00;;;;;;5102361;28;20039;-35
2021/06/29 05:56:21;;;;;;;0.80;0.80;;;23.30;63.60;;;;;;5115833;28;20576;-35
2021/06/29 05:58:47;;;;;;;1.20;1.10;;;23.30;63.00;;;;;;5123707;28;20049;-35
2021/06/29 06:01:13;;;;;;;1.55;1.10;;;23.30;63.40;;;;;;5123416;28;20061;-36
2021/06/29 06:03:39;;;;;;;1.20;1.10;;;23.30;64.30;;;;;;5123700;28;20055;-35
2021/06/29 06:06:05;;;;;;;1.20;1.10;;;23.30;64.60;;;;;;5123107;28;20030;-35
2021/06/29 06:08:32;;;;;;;1.00;0.90;;;23.30;64.80;;;;;;5123688;28;20028;-35
2021/06/29 06:10:58;;;;;;;1.55;1.17;;;23.30;65.10;;;;;;5123600;28;20083;-35
2021/06/29 06:13:24;;;;;;;1.33;1.02;;;23.30;64.60;;;;;;5123219;28;20106;-35
2021/06/29 06:15:52;;;;;;;1.15;1.00;;;23.30;64.90;;;;;;5123229;28;20069;-35
2021/06/29 06:18:19;;;;;;;1.08;0.93;;;23.30;65.00;;;;;;5123616;28;20039;-35
2021/06/29 06:20:45;;;;;;;1.00;0.90;;;23.30;65.00;;;;;;5123456;28;20028;-36
2021/06/29 06:23:12;;;;;;;1.20;1.10;;;23.30;64.20;;;;;;5123569;28;20072;-35
2021/06/29 06:25:38;;;;;;;1.30;1.20;;;23.30;63.80;;;;;;5123300;28;20048;-36
2021/06/29 06:28:05;;;;;;;1.23;1.08;;;23.30;63.50;;;;;;5123278;28;20035;-37
2021/06/29 06:30:31;;;;;;;1.30;1.20;;;23.30;63.40;;;;;;5123218;28;20032;-37
2021/06/29 06:32:58;;;;;;;2.00;1.10;;;23.30;64.60;;;;;;5123201;28;20813;-37
2021/06/29 06:35:24;;;;;;;1.20;1.10;;;23.30;63.80;;;;;;5126954;28;20126;-38
2021/06/29 06:37:50;;;;;;;2.55;1.20;;;23.30;63.50;;;;;;5127608;28;20038;-37
2021/06/29 06:40:16;;;;;;;1.13;1.02;;;23.30;63.50;;;;;;5127509;28;20031;-37
2021/06/29 06:42:43;;;;;;;1.98;1.38;;;23.30;63.70;;;;;;5127442;28;20059;-37
2021/06/29 06:45:10;;;;;;;1.63;1.10;;;23.30;64.10;;;;;;5127436;28;20056;-37
2021/06/29 06:47:36;;;;;;;1.20;1.10;;;23.40;64.40;;;;;;5127133;28;20087;-37
2021/06/29 06:50:03;;;;;;;1.53;1.20;;;23.30;64.80;;;;;;5127627;27;20032;-37
2021/06/29 06:52:29;;;;;;;1.30;1.10;;;23.30;64.70;;;;;;5126836;28;20480;-38
2021/06/29 06:54:56;;;;;;;1.20;1.10;;;23.30;65.30;;;;;;5127220;28;20141;-37
2021/06/29 06:57:22;;;;;;;1.15;1.05;;;23.30;64.90;;;;;;5127297;28;20069;-36
2021/06/29 06:59:48;;;;;;;1.65;1.20;;;23.30;65.30;;;;;;5127029;28;20026;-36
2021/06/29 07:02:14;;;;;;;1.33;1.13;;;23.40;65.60;;;;;;5126885;28;20034;-36
2021/06/29 07:04:41;;;;;;;1.10;1.00;;;23.40;65.40;;;;;;5126954;28;20543;-37
2021/06/29 07:07:07;;;;;;;1.40;1.30;;;23.40;65.80;;;;;;5126150;28;20039;-36
2021/06/29 07:09:33;;;;;;;1.35;1.17;;;23.40;64.70;;;;;;5127054;28;20259;-36
2021/06/29 07:12:01;;;;;;;1.55;1.30;;;23.30;64.50;;;;;;5127090;28;20031;-36
2021/06/29 07:14:27;;;;;;;1.00;0.90;;;23.40;64.80;;;;;;5126464;28;20030;-36
2021/06/29 07:16:53;;;;;;;1.42;1.10;;;23.40;64.60;;;;;;5125271;28;20084;-35
2021/06/29 07:19:19;;;;;;;1.53;1.40;;;23.40;64.80;;;;;;5125657;28;20542;-36
2021/06/29 07:21:46;;;;;;;1.38;1.13;;;23.40;64.80;;;;;;5126974;28;20100;-35
2021/06/29 07:24:12;;;;;;;1.02;0.93;;;23.40;65.00;;;;;;5126703;28;20035;-36
2021/06/29 07:26:38;;;;;;;1.92;1.13;;;23.40;65.00;;;;;;5126591;27;20050;-36
2021/06/29 07:29:04;;;;;;;1.38;1.02;;;23.40;65.10;;;;;;5126431;28;20092;-36
2021/06/29 07:31:31;;;;;;;1.50;1.40;;;23.40;65.70;;;;;;5125155;28;20114;-35
2021/06/29 07:33:57;;;;;;;1.13;1.00;;;23.40;66.00;;;;;;5126540;28;20134;-36
2021/06/29 07:36:23;;;;;;;1.40;0.95;;;23.40;66.70;;;;;;5126494;28;20479;-36
2021/06/29 07:38:53;;;;;;;1.73;0.98;;;23.40;66.70;;;;;;5126129;27;20047;-36
2021/06/29 07:41:19;;;;;;;1.08;0.90;;;23.40;66.40;;;;;;5126238;28;20032;-36
2021/06/29 07:43:46;;;;;;;2.15;1.17;;;23.40;66.40;;;;;;5126040;28;20034;-36
2021/06/29 07:46:12;;;;;;;1.25;1.00;;;23.40;66.40;;;;;;5124817;28;20043;-36
2021/06/29 07:48:38;;;;;;;1.60;1.17;;;23.40;66.90;;;;;;5126325;28;20747;-36
2021/06/29 07:51:09;;;;;;;1.25;0.98;;;23.40;66.20;;;;;;5126154;28;20047;-36
2021/06/29 07:53:36;;;;;;;2.03;1.08;;;23.40;65.90;;;;;;5125959;28;20047;-36
2021/06/29 07:56:02;;;;;;;1.95;1.23;;;23.50;66.00;;;;;;5124624;28;20111;-36
2021/06/29 07:58:28;;;;;;;1.27;1.02;;;23.40;65.80;;;;;;5125985;28;20476;-36
2021/06/29 08:00:55;;;;;;;1.20;1.00;;;23.40;65.70;;;;;;5125701;27;20051;-36
2021/06/29 08:03:21;;;;;;;1.57;0.90;;;23.50;65.90;;;;;;5125530;28;20040;-37
2021/06/29 08:05:47;;;;;;;1.35;1.00;;;23.50;66.40;;;;;;5125006;28;20034;-36
2021/06/29 08:08:13;;;;;;;1.10;1.00;;;23.50;66.50;;;;;;5125764;28;20091;-36
2021/06/29 08:10:39;;;;;;;1.05;0.93;;;23.50;66.70;;;;;;5125737;28;20042;-36
2021/06/29 08:13:06;;;;;;;0.70;0.70;;;23.50;66.60;;;;;;5125452;28;20102;-36
2021/06/29 08:15:33;;;;;;;1.48;0.90;;;23.50;66.90;;;;;;5125542;28;20123;-36
2021/06/29 08:18:00;;;;;;;1.05;0.93;;;23.50;67.50;;;;;;5125478;28;20031;-36
2021/06/29 08:20:26;;;;;;;0.98;0.90;;;23.50;67.20;;;;;;5125612;28;20089;-35
2021/06/29 08:22:53;;;;;;;1.05;0.93;;;23.50;67.20;;;;;;5125541;28;20108;-36
2021/06/29 08:25:21;;;;;;;1.35;0.73;;;23.50;67.80;;;;;;5125227;28;20035;-35
2021/06/29 08:27:48;;;;;;;1.30;0.80;;;23.50;67.10;;;;;;5125337;28;20118;-36
2021/06/29 08:30:14;;;;;;;0.75;0.75;;;23.50;67.70;;;;;;5125588;28;20027;-35
2021/06/29 08:32:40;;;;;;;1.23;0.80;;;23.50;67.30;;;;;;5125141;28;20023;-35
2021/06/29 08:35:10;;;;;;;0.90;0.80;;;23.50;67.50;;;;;;5124841;28;20027;-35
2021/06/29 08:37:37;;;;;;;2.17;0.88;;;23.50;67.90;;;;;;5123757;28;20524;-35
2021/06/29 08:40:05;;;;;;;0.95;0.88;;;23.50;67.00;;;;;;5125274;28;20166;-36
2021/06/29 08:42:34;;;;;;;1.13;0.90;;;23.50;67.30;;;;;;5125442;27;20035;-35
2021/06/29 08:45:08;;;;;;;1.42;0.95;;;23.50;67.30;;;;;;5124849;28;20032;-35
2021/06/29 08:47:35;;;;;;;0.77;0.77;;;23.50;67.40;;;;;;5124625;28;20047;-36
2021/06/29 08:50:02;;;;;;;1.00;0.80;;;23.50;68.00;;;;;;5125039;28;20387;-36
2021/06/29 08:52:29;;;;;;;1.00;0.70;;;23.50;67.80;;;;;;5123673;28;20042;-36
2021/06/29 08:54:56;;;;;;;0.80;0.70;;;23.50;67.80;;;;;;5124552;28;20034;-36
2021/06/29 08:57:22;;;;;;;0.93;0.80;;;23.50;67.80;;;;;;5124513;28;20027;-36
2021/06/29 08:59:48;;;;;;;1.00;0.80;;;23.50;67.90;;;;;;5124543;28;20024;-36
2021/06/29 09:02:15;;;;;;;1.23;0.80;;;23.50;68.20;;;;;;5124628;28;20045;-36
2021/06/29 09:04:51;;;;;;;1.20;0.70;;;23.50;68.50;;;;;;5124164;28;20043;-36
2021/06/29 09:07:30;;;;;;;1.27;0.70;;;23.50;68.60;;;;;;5109347;28;20121;-37
2021/06/29 09:09:57;;;;;;;0.82;0.70;;;23.50;68.30;;;;;;5104113;28;20028;-36
2021/06/29 09:12:43;;;;;;;1.05;0.68;;;23.50;68.70;;;;;;5136226;27;20560;-36
2021/06/29 09:15:38;;;;;;;0.90;0.80;;;23.50;68.70;;;;;;5103777;28;20024;-36
2021/06/29 09:18:09;;;;;;;0.77;0.73;;;23.50;68.60;;;;;;5103816;28;20101;-36
2021/06/29 09:20:37;;;;;;;0.80;0.80;;;23.50;68.40;;;;;;5122779;28;20023;-36
2021/06/29 09:23:15;;;;;;;0.80;0.75;;;23.50;69.10;;;;;;5124260;28;20115;-36
2021/06/29 09:25:47;;;;;;;0.68;0.63;;;23.50;68.30;;;;;;5124048;28;20027;-36
2021/06/29 09:28:21;;;;;;;0.93;0.70;;;23.50;68.30;;;;;;5124077;28;20147;-36
2021/06/29 09:30:55;;;;;;;0.65;0.60;;;23.50;68.50;;;;;;5124058;28;20027;-36
2021/06/29 09:33:24;;;;;;;0.90;0.70;;;23.50;68.30;;;;;;5123794;28;20028;-36
2021/06/29 09:35:52;;;;;;;0.85;0.77;;;23.50;68.30;;;;;;5123830;28;20026;-36
2021/06/29 09:38:22;;;;;;;1.15;0.80;;;23.60;68.60;;;;;;5123964;28;20100;-36
2021/06/29 09:40:53;;;;;;;0.82;0.60;;;23.50;68.50;;;;;;5123954;28;20023;-36
2021/06/29 09:43:20;;;;;;;0.77;0.70;;;23.50;68.80;;;;;;5123413;28;20035;-36
2021/06/29 09:45:48;;;;;;;0.65;0.65;;;23.50;68.80;;;;;;5123558;28;20107;-36
2021/06/29 09:48:27;;;;;;;1.15;0.70;;;23.50;69.30;;;;;;5123783;28;20057;-36
2021/06/29 09:50:55;;;;;;;0.60;0.60;;;23.50;69.30;;;;;;5123802;28;20035;-36
2021/06/29 09:53:30;;;;;;;0.60;0.60;;;23.50;69.30;;;;;;5123406;27;20337;-36
2021/06/29 09:56:03;;;;;;;0.50;0.50;;;23.50;69.20;;;;;;5123711;28;20476;-36
2021/06/29 09:58:31;;;;;;;0.50;0.50;;;23.50;69.40;;;;;;5123381;28;20031;-35
2021/06/29 10:00:59;;;;;;;0.70;0.70;;;23.50;69.50;;;;;;5123302;28;20035;-36
2021/06/29 10:03:38;;;;;;;0.73;0.50;;;23.50;69.40;;;;;;5123204;28;20028;-36
2021/06/29 10:06:15;;;;;;;0.95;0.43;;;23.50;69.40;;;;;;5122861;28;20034;-36
2021/06/29 10:08:44;;;;;;;0.50;0.40;;;23.50;69.00;;;;;;5134593;27;20032;-36
2021/06/29 10:11:28;;;;;;;0.60;0.60;;;23.50;68.80;;;;;;5102953;28;20024;-36
2021/06/29 10:13:56;;;;;;;0.65;0.65;;;23.50;69.00;;;;;;5102772;28;20036;-36
2021/06/29 10:16:25;;;;;;;0.63;0.50;;;23.50;68.80;;;;;;5102673;28;20059;-36
2021/06/29 10:21:24;;;;;;;0.50;0.50;;;23.50;68.80;;;;;;5103016;28;20059;-36
2021/06/29 10:23:52;;;;;;;0.50;0.50;;;23.50;68.80;;;;;;5102414;28;20486;-36
2021/06/29 10:26:18;;;;;;;0.70;0.60;;;23.50;68.80;;;;;;5102887;28;20036;-36
2021/06/29 10:28:45;;;;;;;0.43;0.43;;;23.50;69.80;;;;;;5102848;28;20016;-35
2021/06/29 10:31:25;;;;;;;0.50;0.40;;;23.50;69.60;;;;;;5102740;28;20031;-36
2021/06/29 10:33:52;;;;;;;0.60;0.57;;;23.50;69.60;;;;;;5102650;28;20070;-36
2021/06/29 10:36:19;;;;;;;;;;;23.50;69.30;;;;;;5116383;28;20027;-36
2021/06/29 10:38:45;;;;;;;0.68;0.40;;;23.50;69.40;;;;;;5123346;28;19908;-36
2021/06/29 10:41:12;;;;;;;0.43;0.43;;;23.50;70.10;;;;;;5123446;28;20024;-36
2021/06/29 10:43:38;;;;;;;0.35;0.35;;;23.50;69.60;;;;;;5121298;28;20032;-36
2021/06/29 10:46:04;;;;;;;0.90;0.50;;;23.50;69.60;;;;;;5122939;28;20027;-36
2021/06/29 10:48:31;;;;;;;0.50;0.37;;;23.50;69.60;;;;;;5122958;28;20055;-36
2021/06/29 10:50:58;;;;;;;0.35;0.32;;;23.50;69.60;;;;;;5123128;28;20015;-36
2021/06/29 10:53:45;;;;;;;0.40;0.40;;;23.50;69.30;;;;;;5122691;28;20091;-36
2021/06/29 10:56:19;;;;;;;0.70;0.70;;;23.50;70.10;;;;;;5122987;28;20050;-36
2021/06/29 10:58:48;;;;;;;1.58;0.52;;;23.50;69.80;;;;;;5121492;28;20027;-36
2021/06/29 11:01:24;;;;;;;0.50;0.50;;;23.50;69.60;;;;;;5122887;28;20031;-36
2021/06/29 11:03:51;;;;;;;0.60;0.30;;;23.50;70.00;;;;;;5121497;28;20028;-35
2021/06/29 11:06:45;;;;;;;0.50;0.50;;;23.50;69.60;;;;;;5122459;28;20108;-36
2021/06/29 11:09:18;;;;;;;0.60;0.50;;;23.50;69.70;;;;;;5102479;28;20085;-36
2021/06/29 11:12:25;;;;;;;0.40;0.40;;;23.50;69.80;;;;;;5101407;28;20032;-36
2021/06/29 11:14:54;;;;;;;0.40;0.38;;;23.50;69.90;;;;;;5102095;28;20080;-37
2021/06/29 11:17:22;;;;;;;0.40;0.40;;;23.50;69.70;;;;;;5081977;28;20055;-36
2021/06/29 11:20:10;;;;;;;0.30;0.30;;;23.50;69.90;;;;;;5090910;28;20080;-36
2021/06/29 11:22:55;;;;;;;0.32;0.30;;;23.50;69.60;;;;;;5105935;28;20032;-36
2021/06/29 11:25:45;;;;;;;0.40;0.40;;;23.50;69.60;;;;;;5105994;28;20028;-36
2021/06/29 11:28:33;;;;;;;0.43;0.40;;;23.50;69.60;;;;;;5105677;28;20057;-36
2021/06/29 11:31:09;;;;;;;0.43;0.32;;;23.50;69.60;;;;;;5105949;28;20035;-36
2021/06/29 11:33:41;;;;;;;0.30;0.30;;;23.50;69.80;;;;;;5105829;28;20038;-36
2021/06/29 11:36:32;;;;;;;0.25;0.25;;;23.50;69.60;;;;;;5105187;28;20027;-37
2021/06/29 11:39:01;;;;;;;0.43;0.30;;;23.50;69.60;;;;;;5085192;28;20024;-36
2021/06/29 11:41:31;;;;;;;0.40;0.32;;;23.50;69.30;;;;;;5087671;28;20040;-36
2021/06/29 11:44:07;;;;;;;1.00;0.50;;;23.50;69.30;;;;;;5105507;28;20024;-36
2021/06/29 11:46:55;;;;;;;0.30;0.30;;;23.50;69.50;;;;;;5105591;28;20032;-35
2021/06/29 11:49:31;;;;;;;0.30;0.30;;;23.50;69.70;;;;;;5105417;28;20502;-36
2021/06/29 11:52:06;;;;;;;0.30;0.30;;;23.50;69.40;;;;;;5105026;28;20047;-36
2021/06/29 11:55:02;;;;;;;0.30;0.30;;;23.50;69.60;;;;;;5105442;28;20043;-36
2021/06/29 11:57:36;;;;;;;0.30;0.30;;;23.50;69.30;;;;;;5104062;28;20081;-36
2021/06/29 12:00:07;;;;;;;0.40;0.30;;;23.50;69.60;;;;;;5105200;28;20045;-36
2021/06/29 12:02:33;;;;;;;0.30;0.30;;;23.50;69.80;;;;;;5105102;28;20024;-36
2021/06/29 12:05:06;;;;;;;0.20;0.20;;;23.50;69.60;;;;;;5103797;28;20031;-36
2021/06/29 12:07:54;;;;;;;0.30;0.30;;;23.50;69.70;;;;;;5104848;28;20039;-36
2021/06/29 12:10:28;;;;;;;0.40;0.40;;;23.50;70.00;;;;;;5105162;28;20593;-36
2021/06/29 12:12:56;;;;;;;0.30;0.30;;;23.50;69.70;;;;;;5105038;28;20016;-36
2021/06/29 12:15:39;;;;;;;0.28;0.28;;;23.50;69.60;;;;;;5107766;28;20043;-36
2021/06/29 12:18:10;;;;;;;0.35;0.35;;;23.50;69.70;;;;;;5125051;28;20053;-36
2021/06/29 12:20:47;;;;;;;0.40;0.35;;;23.50;69.90;;;;;;5125313;28;20036;-36
2021/06/29 12:23:14;;;;;;;0.30;0.30;;;23.50;70.00;;;;;;5124740;28;20034;-36
2021/06/29 12:25:45;;;;;;;0.20;0.20;;;23.50;69.90;;;;;;5125241;28;20449;-36
2021/06/29 12:28:15;;;;;;;0.25;0.20;;;23.50;70.00;;;;;;5124964;28;20032;-36
2021/06/29 12:30:52;;;;;;;0.28;0.25;;;23.50;69.90;;;;;;5125217;28;20046;-36
2021/06/29 12:33:22;;;;;;;0.30;0.22;;;23.50;70.00;;;;;;5124599;28;20077;-36
2021/06/29 12:35:50;;;;;;;0.70;0.30;;;23.50;69.90;;;;;;5125037;28;20027;-36
2021/06/29 12:38:19;;;;;;;0.20;0.20;;;23.50;70.10;;;;;;5124893;28;20032;-36
2021/06/29 12:40:50;;;;;;;0.30;0.30;;;23.50;70.00;;;;;;5124816;28;20030;-36
2021/06/29 12:43:21;;;;;;;0.30;0.30;;;23.50;69.90;;;;;;5124117;28;20039;-36
2021/06/29 12:45:47;;;;;;;0.57;0.35;;;23.50;70.00;;;;;;5124778;28;20030;-35
2021/06/29 12:48:13;;;;;;;0.57;0.32;;;23.50;70.50;;;;;;5124379;28;20042;-36
2021/06/29 12:50:40;;;;;;;0.20;0.20;;;23.50;69.80;;;;;;5124809;28;20034;-36
2021/06/29 12:53:06;;;;;;;0.43;0.33;;;23.50;69.90;;;;;;5124790;28;20035;-36
2021/06/29 12:55:32;;;;;;;0.30;0.30;;;23.60;69.90;;;;;;5124813;28;20055;-36
2021/06/29 12:58:08;;;;;;;0.30;0.30;;;23.60;70.00;;;;;;5123243;28;20042;-36
2021/06/29 13:00:38;;;;;;;0.88;0.30;;;23.60;69.90;;;;;;5124634;28;20341;-36
2021/06/29 13:03:04;;;;;;;0.20;0.20;;;23.60;69.90;;;;;;5123186;28;20027;-36